West Woodward Airport Woodward US
ICAO: KWWR
IATA: WWR
Category: Medium
Scheduled Services: No

Elevation: 2189 ft
TransAlt. 18000 ft.

Airport Communications:
AWOS 3:118.425
KANSAS CITY CNTR:126.95
CTAF/UNICOM:122.8

KWWR Zoom In..

Runways:

(A) RW 05 length 2500 ft width 60 ft
---- / hdg 52

(B) RW 17 length 5502 ft width 100 ft
---- / hdg 172

(C) RW 23 length 2500 ft width 60 ft
---- / hdg 232

(D) RW 35 length 5502 ft width 100 ft
---- / hdg 352

Location; KWWR
Day. 26 / Time. 11.55 Zulu
* Altimeter: 29.99
* Temperature: 10° c. 50°f.
* Wind from: 300° Speed 07 kn.
Dewpoint: 08° c.
Visibility: 10 Statute Miles.
Clouds: Clear (automated report).

KWWR 261155Z AUTO 30007KT 10SM CLR 10/08 A2999 RMK AO2


Wind From 300°
Speed 07 kn.

 
 
jpsmedia worldairports.se 2020   terms of use